Bess, Alabama
Current Conditions -  °F | °C
As of 3:53 PM on Friday 24 Oct 2014 (Local Time) from KBHM Reporting Station
Few Clouds Few Clouds  
Wind Chill: 74°   Ceiling: Unl
Heat Index: 74°   Visibility: 10mi
Dew Point: 32°   Wind: 6mph
Humidity: 21%   Direction: 340°NNW
Pressure: 30.06"   Gusts: NA
Location:  33.4335°N, 86.9037°W
Report Text: KBHM 242053Z 34005KT 10SM FEW250 23/00 A3006 RMK AO2 SLP174 T02330000 56010
Loading
Personal Weather Stations






























Interactive Weather Map
Tropical Storm Tracking
New forecast layout! Learn more

10-Day Weather Forecast

Advertisements
Track Severe Weather on mobile